Time;durP1;ratioP1;P1;durP2;ratioP2;P2;SDS_P1;SDS_P2;PMS_P1;PMS_P2;Temp;Humidity;BMP_temperature;BMP_pressure;BME280_temperature;BME280_humidity;BME280_pressure;Samples;Min_cycle;Max_cycle;Signal;HPM_P1;HPM_P2
2022/01/20 00:03:35;;;;;;;21.47;7.33;;;3.60;99.90;;;;;;5011181;28;20832;-84
2022/01/20 00:27:36;;;;;;;24.25;7.03;;;4.00;99.90;;;;;;5011084;28;20398;-83
2022/01/20 00:35:29;;;;;;;34.08;7.85;;;4.20;99.90;;;;;;5018007;28;20868;-84
2022/01/20 00:37:54;;;;;;;29.63;7.05;;;4.20;99.90;;;;;;5027481;28;20401;-83
2022/01/20 00:40:20;;;;;;;29.83;7.68;;;4.20;99.90;;;;;;5028570;28;20487;-84
2022/01/20 00:42:46;;;;;;;16.75;4.75;;;4.30;99.90;;;;;;5028099;28;20438;-84
2022/01/20 00:45:12;;;;;;;19.40;5.03;;;4.20;99.90;;;;;;5029304;28;20440;-83
2022/01/20 00:47:39;;;;;;;14.32;4.20;;;4.10;99.90;;;;;;5025498;28;20378;-83
2022/01/20 00:50:10;;;;;;;18.25;4.95;;;3.90;99.90;;;;;;5029174;28;20451;-84
2022/01/20 00:52:36;;;;;;;20.42;4.95;;;3.80;99.90;;;;;;5028220;28;20390;-84
2022/01/20 00:55:02;;;;;;;25.17;6.05;;;3.70;99.90;;;;;;5029028;28;20454;-84
2022/01/20 00:57:28;;;;;;;25.30;6.72;;;3.70;99.90;;;;;;5027522;28;20381;-83
2022/01/20 00:59:53;;;;;;;25.53;6.80;;;3.70;99.90;;;;;;5028564;28;20988;-84
2022/01/20 01:02:19;;;;;;;26.97;6.23;;;3.80;99.90;;;;;;5027314;28;20507;-83
2022/01/20 01:04:44;;;;;;;27.33;6.43;;;3.70;99.90;;;;;;5029094;28;20441;-84
2022/01/20 01:10:21;;;;;;;25.73;7.28;;;3.70;99.90;;;;;;4971321;28;20513;-83
2022/01/20 01:12:53;;;;;;;29.38;6.72;;;3.60;99.90;;;;;;5014969;28;20401;-84
2022/01/20 01:15:24;;;;;;;26.60;6.75;;;3.60;99.90;;;;;;5026753;28;20398;-84
2022/01/20 01:21:07;;;;;;;27.35;6.88;;;3.60;99.90;;;;;;5035449;28;20412;-83
2022/01/20 01:23:20;;;;;;;27.13;7.22;;;3.50;99.90;;;;;;5035164;27;20389;-84
2022/01/20 01:25:46;;;;;;;28.77;6.60;;;3.50;99.90;;;;;;5034068;27;20514;-83
2022/01/20 01:28:11;;;;;;;33.35;7.18;;;3.40;99.90;;;;;;5033953;28;20412;-83
2022/01/20 01:33:07;;;;;;;30.20;7.05;;;3.40;99.90;;;;;;5033577;27;20389;-83
2022/01/20 01:35:34;;;;;;;26.73;6.73;;;3.40;99.90;;;;;;5034103;28;20389;-83
2022/01/20 01:40:38;;;;;;;22.10;5.65;;;3.30;99.90;;;;;;5032434;28;20403;-84
2022/01/20 01:43:12;;;;;;;26.27;6.38;;;3.30;99.90;;;;;;5033094;28;20763;-83
2022/01/20 01:45:40;;;;;;;23.63;6.33;;;3.30;99.90;;;;;;5033300;28;20500;-84
2022/01/20 01:48:07;;;;;;;19.05;5.13;;;3.30;99.90;;;;;;5032260;28;20393;-83
2022/01/20 01:50:33;;;;;;;18.98;5.68;;;3.30;99.90;;;;;;5032543;27;20468;-83
2022/01/20 01:53:03;;;;;;;23.52;5.80;;;3.30;99.90;;;;;;5033399;27;20952;-84
2022/01/20 01:55:31;;;;;;;18.60;5.38;;;3.20;99.90;;;;;;5033797;28;20386;-85
2022/01/20 01:57:57;;;;;;;19.15;5.35;;;3.20;99.90;;;;;;5033613;28;20448;-82
2022/01/20 02:00:23;;;;;;;24.53;5.63;;;3.10;99.90;;;;;;5034522;28;20891;-82
2022/01/20 02:02:48;;;;;;;21.75;6.05;;;3.10;99.90;;;;;;5036163;27;20385;-84
2022/01/20 02:05:16;;;;;;;16.43;5.60;;;3.00;99.90;;;;;;5036270;27;20458;-83
2022/01/20 02:21:00;;;;;;;19.47;5.27;;;2.90;99.90;;;;;;5035051;27;20556;-84
2022/01/20 02:23:26;;;;;;;20.03;5.73;;;2.80;99.90;;;;;;5035074;27;20394;-84
2022/01/20 02:25:53;;;;;;;21.52;5.15;;;2.80;99.90;;;;;;5033437;27;20417;-83
2022/01/20 02:28:18;;;;;;;20.75;5.30;;;2.70;99.90;;;;;;5031482;27;20880;-83
2022/01/20 02:30:44;;;;;;;19.73;5.03;;;2.70;99.90;;;;;;5029696;28;20396;-83
2022/01/20 02:33:16;;;;;;;19.23;4.50;;;2.70;99.90;;;;;;5031013;28;20439;-83
2022/01/20 02:35:49;;;;;;;19.65;4.80;;;2.60;99.90;;;;;;5028015;28;20398;-84
2022/01/20 02:38:21;;;;;;;18.48;5.00;;;2.60;99.90;;;;;;5029551;28;20442;-83
2022/01/20 02:46:08;;;;;;;17.13;5.00;;;2.30;99.90;;;;;;5030922;28;20436;-83
2022/01/20 02:48:34;;;;;;;12.93;4.30;;;2.40;99.90;;;;;;5029191;28;20419;-83
2022/01/20 02:51:00;;;;;;;19.42;5.03;;;2.40;99.90;;;;;;5029863;28;20386;-83
2022/01/20 02:53:25;;;;;;;17.85;4.55;;;2.40;99.90;;;;;;5029721;28;21238;-84
2022/01/20 02:55:52;;;;;;;14.88;4.20;;;2.40;99.90;;;;;;5029368;28;20416;-84
2022/01/20 02:58:18;;;;;;;21.93;5.03;;;2.40;99.90;;;;;;5027852;28;20415;-84
2022/01/20 03:00:44;;;;;;;18.70;4.70;;;2.50;99.90;;;;;;5031113;28;20482;-83
2022/01/20 03:03:09;;;;;;;14.83;4.50;;;2.50;99.90;;;;;;5029463;28;20386;-84
2022/01/20 03:05:36;;;;;;;19.10;4.47;;;2.60;99.90;;;;;;5030001;28;20467;-83
2022/01/20 03:08:01;;;;;;;18.80;4.68;;;2.70;99.90;;;;;;5037982;28;20424;-85
2022/01/20 03:10:30;;;;;;;19.05;4.88;;;2.70;99.90;;;;;;5030276;28;20410;-83
2022/01/20 03:12:57;;;;;;;20.73;4.80;;;2.80;99.90;;;;;;5027854;28;20409;-85
2022/01/20 03:15:24;;;;;;;16.10;5.20;;;2.90;99.90;;;;;;5027124;28;20564;-84
2022/01/20 03:17:50;;;;;;;18.80;5.30;;;3.00;99.90;;;;;;5027631;28;20909;-84
2022/01/20 03:20:15;;;;;;;18.33;4.97;;;3.00;99.90;;;;;;5027297;28;20512;-84
2022/01/20 03:22:41;;;;;;;19.13;5.18;;;3.00;99.90;;;;;;5027901;28;20465;-84
2022/01/20 03:25:07;;;;;;;22.73;5.20;;;3.00;99.90;;;;;;5028727;28;20405;-83
2022/01/20 03:27:33;;;;;;;17.47;5.20;;;2.90;99.90;;;;;;5027724;28;20385;-84
2022/01/20 03:29:58;;;;;;;24.33;5.22;;;2.80;99.90;;;;;;5026643;28;20381;-83
2022/01/20 03:32:24;;;;;;;22.67;5.40;;;2.80;99.90;;;;;;5027560;28;20887;-82
2022/01/20 03:34:50;;;;;;;24.37;5.67;;;2.90;99.90;;;;;;5028794;28;20377;-84
2022/01/20 03:37:15;;;;;;;18.47;4.90;;;2.90;99.90;;;;;;5028766;28;20397;-83
2022/01/20 03:39:41;;;;;;;26.88;6.32;;;2.90;99.90;;;;;;5027498;28;20386;-83
2022/01/20 03:42:07;;;;;;;21.48;6.07;;;3.00;99.90;;;;;;5029457;28;20393;-83
2022/01/20 03:44:32;;;;;;;24.15;6.03;;;3.10;99.90;;;;;;5030320;28;20409;-85
2022/01/20 03:47:02;;;;;;;21.30;5.83;;;3.10;99.90;;;;;;5028355;28;20381;-84
2022/01/20 03:52:04;;;;;;;27.45;6.68;;;3.20;99.90;;;;;;5030202;28;20397;-85
2022/01/20 03:54:30;;;;;;;22.83;5.75;;;3.30;99.90;;;;;;5029421;28;20420;-82
2022/01/20 03:56:56;;;;;;;23.80;6.70;;;3.20;99.90;;;;;;5027783;28;20867;-83
2022/01/20 03:59:21;;;;;;;24.30;6.38;;;3.30;99.90;;;;;;5028852;28;20389;-84
2022/01/20 04:01:47;;;;;;;20.80;5.40;;;3.30;99.90;;;;;;5028542;28;21250;-83
2022/01/20 04:04:12;;;;;;;17.57;5.43;;;3.30;99.90;;;;;;5029265;28;20417;-83
2022/01/20 04:06:38;;;;;;;21.70;5.60;;;3.30;99.90;;;;;;5029289;28;20487;-83
2022/01/20 04:09:04;;;;;;;21.33;5.90;;;3.30;99.90;;;;;;5028541;28;20411;-83
2022/01/20 04:11:30;;;;;;;18.17;5.75;;;3.30;99.90;;;;;;5028075;28;20891;-84
2022/01/20 04:13:58;;;;;;;6.43;2.58;;;2.40;99.90;;;;;;5027183;28;20393;-84
2022/01/20 04:17:04;;;;;;;7.22;2.40;;;2.10;99.90;;;;;;5016271;28;20473;-85
2022/01/20 04:19:20;;;;;;;10.35;2.50;;;1.60;99.90;;;;;;5022887;28;20393;-85
2022/01/20 04:21:46;;;;;;;10.77;2.50;;;1.40;99.90;;;;;;5026333;28;20401;-86
2022/01/20 04:24:12;;;;;;;9.90;2.85;;;1.30;99.90;;;;;;5026494;28;20378;-84
2022/01/20 04:26:38;;;;;;;10.35;2.85;;;1.30;99.90;;;;;;5025733;28;20437;-85
2022/01/20 04:29:06;;;;;;;14.15;3.25;;;1.20;99.90;;;;;;5025887;28;20425;-85
2022/01/20 04:31:34;;;;;;;13.97;3.77;;;1.10;99.90;;;;;;5025902;28;20390;-86
2022/01/20 04:34:00;;;;;;;18.25;4.13;;;1.20;99.90;;;;;;5009243;28;20390;-84
2022/01/20 04:36:29;;;;;;;13.88;3.60;;;1.20;99.90;;;;;;5026211;28;20385;-85
2022/01/20 04:38:54;;;;;;;16.80;3.95;;;1.20;99.90;;;;;;5026144;28;20480;-84
2022/01/20 04:41:21;;;;;;;12.68;3.28;;;1.20;99.90;;;;;;5025008;28;20489;-86
2022/01/20 04:43:47;;;;;;;14.07;4.28;;;1.20;99.90;;;;;;5027214;28;20397;-84
2022/01/20 04:46:25;;;;;;;13.02;3.22;;;1.20;99.90;;;;;;5025683;28;20420;-83
2022/01/20 04:49:14;;;;;;;10.88;2.88;;;1.20;99.90;;;;;;5025755;28;20876;-84
2022/01/20 04:57:29;;;;;;;15.43;2.92;;;1.40;99.90;;;;;;5025980;28;20437;-85
2022/01/20 04:59:52;;;;;;;12.02;3.80;;;1.40;99.90;;;;;;5033914;28;20409;-83
2022/01/20 05:02:18;;;;;;;13.05;3.72;;;1.50;99.90;;;;;;5026518;28;20503;-85
2022/01/20 05:04:44;;;;;;;16.67;3.50;;;1.50;99.90;;;;;;5026835;28;20401;-84
2022/01/20 05:07:18;;;;;;;16.15;3.63;;;1.50;99.90;;;;;;5026726;28;20733;-83
2022/01/20 05:09:45;;;;;;;12.18;3.70;;;1.50;99.90;;;;;;5027009;28;20875;-85
2022/01/20 05:12:14;;;;;;;13.02;3.53;;;1.60;99.90;;;;;;5026564;28;20394;-86
2022/01/20 05:14:40;;;;;;;15.82;4.15;;;1.60;99.90;;;;;;5026865;28;20409;-84
2022/01/20 05:17:05;;;;;;;18.07;4.03;;;1.60;99.90;;;;;;5025531;28;20386;-84
2022/01/20 05:19:32;;;;;;;15.33;4.13;;;1.70;99.90;;;;;;5026548;28;20468;-85
2022/01/20 05:21:59;;;;;;;13.73;3.60;;;1.80;99.90;;;;;;5026461;28;20405;-84
2022/01/20 05:24:25;;;;;;;11.20;3.83;;;1.80;99.90;;;;;;5025905;28;20883;-84
2022/01/20 05:26:53;;;;;;;16.38;3.47;;;1.80;99.90;;;;;;5026071;28;20397;-83
2022/01/20 05:29:19;;;;;;;15.13;4.07;;;1.80;99.90;;;;;;5026988;28;20732;-83
2022/01/20 05:31:45;;;;;;;12.67;3.83;;;1.80;99.90;;;;;;5025651;28;20910;-84
2022/01/20 05:34:11;;;;;;;12.90;4.07;;;1.80;99.90;;;;;;5024830;28;20386;-84
2022/01/20 05:36:36;;;;;;;13.37;3.37;;;1.70;99.90;;;;;;5026488;28;20386;-85
2022/01/20 05:39:04;;;;;;;16.57;4.10;;;1.80;99.90;;;;;;5025063;28;20398;-86
2022/01/20 05:41:30;;;;;;;14.23;3.87;;;1.80;99.90;;;;;;5025568;28;20439;-85
2022/01/20 05:43:56;;;;;;;12.75;3.97;;;1.90;99.90;;;;;;5025571;28;20449;-85
2022/01/20 05:46:25;;;;;;;14.77;4.47;;;1.80;99.90;;;;;;5025106;28;20414;-83
2022/01/20 05:48:50;;;;;;;17.23;4.38;;;1.70;99.90;;;;;;5024481;28;20440;-83
2022/01/20 05:51:18;;;;;;;14.97;4.23;;;1.80;99.90;;;;;;5024925;28;20414;-83
2022/01/20 05:53:44;;;;;;;12.68;4.07;;;1.90;99.90;;;;;;5028377;28;20400;-84
2022/01/20 05:56:09;;;;;;;11.00;3.60;;;1.90;99.90;;;;;;5025202;28;20504;-85
2022/01/20 05:58:36;;;;;;;14.30;3.60;;;2.00;99.90;;;;;;5024794;28;20439;-84
2022/01/20 06:01:06;;;;;;;11.27;3.35;;;2.00;99.90;;;;;;5025335;28;21198;-84
2022/01/20 06:03:39;;;;;;;11.48;3.42;;;2.10;99.90;;;;;;5027523;28;20399;-85
2022/01/20 06:06:10;;;;;;;11.23;3.83;;;2.00;99.90;;;;;;5028830;28;20933;-85
2022/01/20 06:08:37;;;;;;;11.40;3.40;;;;;;;;;;5027765;28;20936;-84
2022/01/20 06:11:04;;;;;;;9.97;3.30;;;;;;;;;;5028012;28;20397;-84
2022/01/20 06:13:30;;;;;;;9.77;2.92;;;;;;;;;;5030432;28;20778;-84
2022/01/20 06:15:56;;;;;;;10.07;3.20;;;;;;;;;;5027993;28;20470;-84
2022/01/20 06:18:22;;;;;;;8.60;2.70;;;3.70;99.90;;;;;;5029091;28;20602;-84
2022/01/20 06:20:48;;;;;;;9.73;2.70;;;1.90;99.90;;;;;;5028532;28;20390;-85
2022/01/20 06:23:15;;;;;;;8.45;2.97;;;1.80;99.90;;;;;;5028853;28;20514;-86
2022/01/20 06:25:41;;;;;;;7.83;3.13;;;1.70;99.90;;;;;;5027596;28;20409;-84
2022/01/20 06:28:08;;;;;;;12.18;3.00;;;1.60;99.90;;;;;;5026957;28;20405;-84
2022/01/20 06:30:34;;;;;;;8.77;3.00;;;1.60;99.90;;;;;;5028131;28;20891;-82
2022/01/20 06:33:01;;;;;;;11.30;3.03;;;1.50;99.90;;;;;;5028466;28;20526;-85
2022/01/20 06:35:27;;;;;;;9.35;3.13;;;1.40;99.90;;;;;;5029029;28;20456;-83
2022/01/20 06:37:54;;;;;;;12.35;3.10;;;1.40;99.90;;;;;;5028924;28;21263;-86
2022/01/20 06:40:21;;;;;;;6.25;2.67;;;1.40;99.90;;;;;;5028806;28;20389;-83
2022/01/20 06:42:47;;;;;;;11.40;3.17;;;1.30;99.90;;;;;;5029558;28;20402;-85
2022/01/20 06:45:15;;;;;;;10.13;3.38;;;1.30;99.90;;;;;;5028980;28;20412;-84
2022/01/20 06:47:41;;;;;;;10.02;3.10;;;1.30;99.90;;;;;;5030424;28;20406;-84
2022/01/20 06:50:09;;;;;;;10.85;3.47;;;1.20;99.90;;;;;;5030597;28;20789;-83
2022/01/20 06:52:36;;;;;;;15.02;3.75;;;1.20;99.90;;;;;;5039203;28;20453;-83
2022/01/20 06:55:05;;;;;;;11.13;3.60;;;1.20;99.90;;;;;;5033461;28;20370;-83
2022/01/20 06:57:35;;;;;;;10.75;3.40;;;1.30;99.90;;;;;;5028983;28;20962;-83
2022/01/20 07:00:03;;;;;;;10.27;3.22;;;1.30;99.90;;;;;;5028713;28;20868;-81
2022/01/20 07:02:28;;;;;;;11.40;3.67;;;1.30;99.90;;;;;;5028308;28;20950;-83
2022/01/20 07:04:54;;;;;;;11.93;3.43;;;1.30;99.90;;;;;;5010245;28;20403;-83
2022/01/20 07:07:20;;;;;;;12.97;3.70;;;1.30;99.90;;;;;;5010300;28;20414;-84
2022/01/20 07:09:45;;;;;;;10.70;3.50;;;1.30;99.90;;;;;;5022276;28;20434;-83
2022/01/20 07:12:12;;;;;;;11.05;3.55;;;1.40;99.90;;;;;;5029611;28;20394;-82
2022/01/20 07:14:38;;;;;;;11.23;3.60;;;1.40;99.90;;;;;;5027452;28;20769;-82
2022/01/20 07:17:05;;;;;;;12.93;3.80;;;1.50;99.90;;;;;;5027920;28;20421;-82
2022/01/20 07:19:31;;;;;;;10.18;3.40;;;1.50;99.90;;;;;;5029056;28;20385;-82
2022/01/20 07:21:57;;;;;;;12.53;3.87;;;1.50;99.90;;;;;;5027814;28;20393;-86
2022/01/20 07:24:22;;;;;;;12.80;3.70;;;1.50;99.90;;;;;;5030265;28;20405;-83
2022/01/20 07:26:48;;;;;;;12.60;3.37;;;1.50;99.90;;;;;;5029073;28;20381;-82
2022/01/20 07:29:14;;;;;;;10.93;3.27;;;1.40;99.90;;;;;;5029197;28;20409;-85
2022/01/20 07:31:40;;;;;;;9.38;3.83;;;1.30;99.90;;;;;;5029224;28;20392;-82
2022/01/20 07:34:06;;;;;;;10.63;3.33;;;1.30;99.90;;;;;;5031543;28;20393;-81
2022/01/20 07:36:31;;;;;;;14.48;3.80;;;1.20;99.90;;;;;;5031062;28;20392;-83
2022/01/20 07:38:57;;;;;;;17.43;4.17;;;1.20;99.90;;;;;;5029500;28;20449;-83
2022/01/20 07:41:23;;;;;;;10.43;3.80;;;1.30;99.90;;;;;;5031841;28;20385;-82
2022/01/20 07:43:48;;;;;;;15.40;4.10;;;1.30;99.90;;;;;;5031088;28;20390;-83
2022/01/20 07:46:14;;;;;;;14.50;3.80;;;1.20;99.90;;;;;;5030525;28;20486;-82
2022/01/20 07:48:39;;;;;;;13.32;4.07;;;1.20;99.90;;;;;;5030480;28;20390;-82
2022/01/20 07:51:06;;;;;;;14.07;4.18;;;1.10;99.90;;;;;;5031559;28;20389;-85
2022/01/20 07:53:34;;;;;;;12.48;4.03;;;1.10;99.90;;;;;;5029148;28;20397;-83
2022/01/20 07:56:00;;;;;;;17.67;3.97;;;1.10;99.90;;;;;;5031772;28;20875;-82
2022/01/20 07:58:26;;;;;;;15.27;4.05;;;1.20;99.90;;;;;;5030403;28;20397;-83
2022/01/20 08:00:53;;;;;;;11.97;4.43;;;1.30;99.90;;;;;;5032875;28;21035;-81
2022/01/20 08:03:19;;;;;;;14.68;4.30;;;1.30;99.90;;;;;;5031325;28;20421;-82
2022/01/20 08:05:45;;;;;;;14.15;4.20;;;1.30;99.90;;;;;;5031568;28;20394;-83
2022/01/20 08:08:10;;;;;;;13.07;3.95;;;1.30;99.90;;;;;;5029848;28;20420;-83
2022/01/20 08:10:36;;;;;;;14.38;4.35;;;1.30;99.90;;;;;;5030346;28;20411;-83
2022/01/20 08:13:03;;;;;;;16.80;4.27;;;1.40;99.90;;;;;;5027188;28;20442;-82
2022/01/20 08:15:29;;;;;;;14.57;4.05;;;1.40;99.90;;;;;;5027830;28;20466;-82
2022/01/20 08:17:55;;;;;;;12.90;4.20;;;1.40;99.90;;;;;;5028829;28;20883;-82
2022/01/20 08:20:20;;;;;;;15.73;4.43;;;1.50;99.90;;;;;;5027532;28;20947;-82
2022/01/20 08:22:46;;;;;;;17.85;5.00;;;1.50;99.90;;;;;;5029114;28;20425;-84
2022/01/20 08:25:15;;;;;;;17.75;4.40;;;1.60;99.90;;;;;;5030378;28;20458;-84
2022/01/20 08:27:43;;;;;;;14.48;4.25;;;1.60;99.90;;;;;;5026930;28;20523;-83
2022/01/20 08:30:12;;;;;;;15.80;4.43;;;1.60;99.90;;;;;;5025113;28;20382;-86
2022/01/20 08:32:38;;;;;;;16.30;4.57;;;1.70;99.90;;;;;;5026227;28;20389;-84
2022/01/20 08:35:06;;;;;;;13.18;4.03;;;1.80;99.90;;;;;;5027214;28;20393;-84
2022/01/20 08:37:42;;;;;;;16.63;4.68;;;1.80;99.90;;;;;;5026836;28;20397;-81
2022/01/20 08:40:12;;;;;;;15.10;4.40;;;1.90;99.90;;;;;;5028537;28;20413;-81
2022/01/20 08:42:38;;;;;;;13.35;4.40;;;2.00;99.90;;;;;;5027004;27;20390;-83
2022/01/20 08:45:04;;;;;;;16.42;4.55;;;2.00;99.90;;;;;;5026979;28;20413;-83
2022/01/20 08:47:30;;;;;;;15.55;4.45;;;2.20;99.90;;;;;;5029706;28;20392;-82
2022/01/20 08:49:55;;;;;;;16.15;4.20;;;2.30;99.90;;;;;;5032137;28;20445;-82
2022/01/20 08:52:21;;;;;;;14.23;4.70;;;2.40;99.90;;;;;;5030256;28;20386;-82
2022/01/20 08:54:50;;;;;;;18.23;4.85;;;2.40;99.90;;;;;;5025222;28;20388;-83
2022/01/20 08:57:16;;;;;;;14.10;4.60;;;2.40;99.90;;;;;;5024492;28;20390;-84
2022/01/20 08:59:42;;;;;;;15.03;4.60;;;2.50;99.90;;;;;;5027982;28;20400;-81
2022/01/20 09:02:12;;;;;;;15.10;4.68;;;2.60;99.90;;;;;;5027905;28;20848;-83
2022/01/20 09:04:38;;;;;;;15.65;4.50;;;2.60;99.90;;;;;;5023926;28;20410;-82
2022/01/20 09:07:04;;;;;;;16.23;4.70;;;2.60;99.90;;;;;;5026467;28;20488;-82
2022/01/20 09:09:30;;;;;;;15.50;5.23;;;2.60;99.90;;;;;;5027666;28;20461;-85
2022/01/20 09:17:25;;;;;;;17.38;5.32;;;2.50;99.90;;;;;;5029412;28;20900;-84
2022/01/20 09:19:52;;;;;;;18.48;4.90;;;2.60;99.90;;;;;;5026452;28;20405;-84
2022/01/20 09:22:19;;;;;;;22.35;6.07;;;2.50;99.90;;;;;;5027799;28;20385;-82
2022/01/20 09:24:45;;;;;;;20.95;5.93;;;2.50;99.90;;;;;;5028415;28;20400;-85
2022/01/20 09:27:12;;;;;;;21.60;6.10;;;2.50;99.90;;;;;;5027639;28;20481;-83
2022/01/20 09:29:38;;;;;;;18.42;5.25;;;2.50;99.90;;;;;;5027727;28;20747;-83
2022/01/20 09:32:07;;;;;;;21.05;5.32;;;2.60;99.90;;;;;;5026986;28;20409;-82
2022/01/20 09:34:34;;;;;;;16.52;4.95;;;2.60;99.90;;;;;;5025527;28;20402;-87
2022/01/20 09:36:59;;;;;;;15.65;4.93;;;2.70;99.90;;;;;;5027450;28;20413;-82
2022/01/20 09:39:25;;;;;;;20.63;5.03;;;2.70;99.90;;;;;;5031803;28;20852;-84
2022/01/20 09:41:51;;;;;;;17.92;4.88;;;2.70;99.90;;;;;;5029614;28;20386;-83
2022/01/20 09:44:16;;;;;;;17.83;5.65;;;2.70;99.90;;;;;;5029475;28;20409;-84
2022/01/20 09:46:52;;;;;;;20.27;4.90;;;2.80;99.90;;;;;;5032009;28;20409;-82
2022/01/20 09:49:17;;;;;;;19.30;5.60;;;2.80;99.90;;;;;;5031518;28;20389;-81
2022/01/20 09:51:43;;;;;;;15.13;4.53;;;3.00;99.90;;;;;;5030667;28;20390;-84
2022/01/20 09:54:11;;;;;;;19.40;5.00;;;2.90;99.90;;;;;;5032221;28;20794;-83
2022/01/20 09:56:37;;;;;;;17.25;5.10;;;3.00;99.90;;;;;;5032161;28;20438;-82
2022/01/20 09:59:03;;;;;;;18.37;5.43;;;3.00;99.90;;;;;;5031203;28;20497;-83
2022/01/20 10:01:46;;;;;;;16.23;4.97;;;3.10;99.90;;;;;;5029502;28;20447;-83
2022/01/20 10:04:26;;;;;;;20.55;5.40;;;3.10;99.90;;;;;;5029890;28;20464;-82
2022/01/20 10:07:00;;;;;;;18.13;5.00;;;3.30;99.90;;;;;;5029895;28;20393;-84
2022/01/20 10:09:27;;;;;;;16.90;5.15;;;3.40;99.90;;;;;;5024011;28;20372;-82
2022/01/20 10:11:53;;;;;;;18.53;5.50;;;3.40;99.90;;;;;;5010530;28;20384;-82
2022/01/20 10:14:19;;;;;;;20.70;5.70;;;3.20;99.90;;;;;;5011718;28;20834;-85
2022/01/20 10:16:44;;;;;;;20.13;6.07;;;3.20;99.90;;;;;;5010384;28;20376;-84
2022/01/20 10:19:10;;;;;;;23.10;6.20;;;3.20;99.90;;;;;;5010148;28;20403;-83
2022/01/20 10:21:39;;;;;;;18.58;5.63;;;3.20;99.90;;;;;;5010014;28;20743;-84
2022/01/20 10:24:07;;;;;;;22.65;5.93;;;3.20;99.90;;;;;;5010604;28;20383;-83
2022/01/20 10:26:33;;;;;;;21.23;5.47;;;3.20;99.90;;;;;;5011830;28;21053;-82
2022/01/20 10:29:14;;;;;;;22.23;6.27;;;3.40;99.90;;;;;;5010963;28;20403;-82
2022/01/20 10:31:42;;;;;;;19.58;5.65;;;3.40;99.90;;;;;;5010501;28;20406;-83
2022/01/20 10:34:33;;;;;;;19.75;5.53;;;3.40;99.90;;;;;;5012012;28;20440;-83
2022/01/20 10:37:03;;;;;;;20.35;5.32;;;3.50;99.90;;;;;;5009053;28;20881;-84
2022/01/20 10:39:44;;;;;;;18.17;5.32;;;3.70;99.90;;;;;;5010273;28;20384;-83
2022/01/20 10:42:14;;;;;;;19.52;5.47;;;3.70;99.90;;;;;;5008216;28;20391;-83
2022/01/20 10:44:44;;;;;;;18.95;5.63;;;3.60;99.90;;;;;;5010167;28;20399;-84
2022/01/20 10:47:14;;;;;;;21.15;5.20;;;3.60;99.90;;;;;;5011093;28;20394;-82
2022/01/20 10:49:41;;;;;;;16.88;4.80;;;3.60;99.90;;;;;;5012525;28;20391;-84
2022/01/20 10:52:08;;;;;;;18.10;5.30;;;3.70;99.90;;;;;;5012034;28;20743;-84
2022/01/20 10:54:42;;;;;;;16.13;4.72;;;3.80;99.90;;;;;;5009383;28;20470;-85
2022/01/20 10:57:09;;;;;;;16.33;5.25;;;3.80;99.90;;;;;;5009238;28;20797;-83
2022/01/20 10:59:53;;;;;;;15.93;4.88;;;3.90;99.90;;;;;;5011170;28;20379;-86
2022/01/20 11:02:21;;;;;;;15.48;4.22;;;3.90;99.90;;;;;;5010659;28;20417;-84
2022/01/20 11:04:47;;;;;;;17.60;4.75;;;3.90;99.90;;;;;;5027483;28;20405;-84
2022/01/20 11:07:13;;;;;;;14.65;5.32;;;3.80;99.90;;;;;;5030600;28;20374;-84
2022/01/20 11:09:43;;;;;;;15.70;4.60;;;3.80;99.90;;;;;;5029034;28;20398;-83
2022/01/20 11:12:14;;;;;;;15.35;4.60;;;3.90;99.90;;;;;;5027306;28;20389;-85
2022/01/20 11:14:42;;;;;;;14.88;5.05;;;4.00;99.90;;;;;;5028249;28;20406;-85
2022/01/20 11:17:16;;;;;;;16.80;4.90;;;4.00;99.90;;;;;;5028427;28;20378;-85
2022/01/20 11:19:44;;;;;;;18.90;4.90;;;4.00;99.90;;;;;;5027380;28;20401;-85
2022/01/20 11:22:11;;;;;;;18.05;5.05;;;4.10;99.90;;;;;;5025831;28;20441;-86
2022/01/20 11:24:39;;;;;;;17.08;4.53;;;4.10;99.90;;;;;;5028342;28;20394;-84
2022/01/20 11:27:06;;;;;;;16.50;4.38;;;4.10;99.90;;;;;;5029013;28;20386;-83
2022/01/20 11:29:45;;;;;;;14.50;4.37;;;4.10;99.90;;;;;;5029034;28;20894;-83
2022/01/20 11:32:27;;;;;;;13.43;4.25;;;4.00;99.90;;;;;;5027266;28;20385;-83
2022/01/20 11:35:00;;;;;;;15.17;4.47;;;4.10;99.90;;;;;;5028546;28;20394;-84
2022/01/20 11:37:28;;;;;;;12.75;4.30;;;3.90;99.90;;;;;;5030749;28;20369;-83
2022/01/20 11:40:07;;;;;;;16.35;4.63;;;3.90;99.90;;;;;;5028732;28;20464;-83
2022/01/20 11:42:32;;;;;;;19.00;5.25;;;4.00;99.90;;;;;;5027294;28;20392;-83
2022/01/20 11:44:58;;;;;;;14.27;4.40;;;4.10;99.90;;;;;;5027205;28;20409;-85
2022/01/20 11:47:32;;;;;;;14.33;4.67;;;4.00;99.90;;;;;;5028460;28;20867;-84
2022/01/20 11:49:58;;;;;;;18.23;4.90;;;4.00;99.90;;;;;;5028938;28;20381;-82
2022/01/20 11:52:27;;;;;;;17.70;4.57;;;4.40;99.90;;;;;;5028122;28;20948;-83
2022/01/20 11:54:53;;;;;;;16.38;4.30;;;4.20;99.90;;;;;;5021109;28;20399;-84
2022/01/20 11:57:19;;;;;;;13.13;4.63;;;4.20;99.90;;;;;;5024116;28;20436;-84
2022/01/20 11:59:56;;;;;;;14.33;4.37;;;4.20;99.90;;;;;;5021016;28;20893;-85
2022/01/20 12:02:29;;;;;;;16.10;4.80;;;4.20;99.90;;;;;;5022619;28;20403;-83
2022/01/20 12:04:55;;;;;;;19.17;4.65;;;4.00;99.90;;;;;;5026840;28;20492;-83
2022/01/20 12:07:30;;;;;;;15.45;4.10;;;4.00;99.90;;;;;;5024327;28;20513;-82
2022/01/20 12:10:09;;;;;;;19.43;4.73;;;3.90;99.90;;;;;;5028273;28;20870;-83
2022/01/20 12:12:37;;;;;;;13.10;4.50;;;3.80;99.90;;;;;;5025648;28;20385;-84
2022/01/20 12:15:15;;;;;;;18.85;5.25;;;3.80;99.90;;;;;;5018030;28;20407;-85
2022/01/20 12:17:52;;;;;;;16.15;4.40;;;3.20;99.90;;;;;;5027673;28;20453;-82
2022/01/20 12:20:19;;;;;;;20.25;5.50;;;3.20;99.90;;;;;;5027659;28;20393;-83
2022/01/20 12:22:46;;;;;;;18.27;4.90;;;3.20;99.90;;;;;;5025448;28;20390;-82
2022/01/20 12:25:22;;;;;;;14.38;4.13;;;3.30;99.90;;;;;;5027485;28;20402;-82
2022/01/20 12:27:48;;;;;;;18.20;5.40;;;3.30;99.90;;;;;;5026784;28;20394;-82
2022/01/20 12:30:24;;;;;;;18.42;5.13;;;3.30;99.90;;;;;;5029098;28;20466;-83
2022/01/20 12:33:07;;;;;;;15.73;4.53;;;3.40;99.90;;;;;;5028261;28;20390;-83
2022/01/20 12:35:48;;;;;;;17.08;4.63;;;3.40;99.90;;;;;;5025469;28;20401;-84
2022/01/20 12:38:25;;;;;;;14.77;4.13;;;3.30;99.90;;;;;;5023197;28;20393;-83
2022/01/20 12:41:05;;;;;;;16.73;4.60;;;3.40;99.90;;;;;;5024734;28;21207;-85
2022/01/20 12:43:45;;;;;;;17.90;4.40;;;3.60;99.90;;;;;;5025693;28;20386;-84
2022/01/20 12:46:13;;;;;;;13.40;4.20;;;3.60;99.90;;;;;;5025968;28;20406;-83
2022/01/20 12:48:53;;;;;;;12.55;3.45;;;3.60;99.90;;;;;;5026680;28;20381;-83
2022/01/20 12:51:19;;;;;;;14.70;4.40;;;3.60;99.90;;;;;;5025133;28;20378;-84
2022/01/20 12:53:55;;;;;;;14.25;4.03;;;3.60;99.90;;;;;;5025736;28;20374;-83
2022/01/20 12:56:35;;;;;;;14.10;4.60;;;3.70;99.90;;;;;;5026034;28;20737;-85
2022/01/20 12:59:00;;;;;;;14.25;4.18;;;3.60;99.90;;;;;;5025884;28;20943;-83
2022/01/20 13:01:44;;;;;;;13.38;4.20;;;3.60;99.90;;;;;;5025324;28;20546;-81
2022/01/20 13:04:13;;;;;;;18.60;4.43;;;3.60;99.90;;;;;;5024993;28;20393;-85
2022/01/20 13:06:52;;;;;;;16.75;4.38;;;3.60;99.90;;;;;;5021116;28;20418;-84
2022/01/20 13:09:20;;;;;;;14.73;4.55;;;3.60;99.90;;;;;;5024121;28;20472;-84
2022/01/20 13:12:01;;;;;;;16.23;4.33;;;3.70;99.90;;;;;;5025656;28;20389;-86
2022/01/20 13:14:45;;;;;;;15.30;4.18;;;3.80;99.90;;;;;;5025288;28;20386;-85
2022/01/20 13:17:18;;;;;;;15.07;4.28;;;3.60;99.90;;;;;;5024427;28;20396;-84
2022/01/20 13:19:47;;;;;;;15.05;4.85;;;3.70;99.90;;;;;;5025746;28;20382;-84
2022/01/20 13:23:54;;;;;;;13.80;4.78;;;3.60;99.90;;;;;;5027046;28;20431;-83
2022/01/20 13:25:16;;;;;;;15.73;4.65;;;3.60;99.90;;;;;;5015765;28;20952;-83
2022/01/20 13:28:04;;;;;;;16.43;4.50;;;3.70;99.90;;;;;;5025638;28;20381;-82
2022/01/20 13:30:36;;;;;;;14.17;4.40;;;3.60;99.90;;;;;;5026915;28;20381;-83
2022/01/20 13:33:13;;;;;;;16.25;4.13;;;3.50;99.90;;;;;;5025897;28;20483;-83
2022/01/20 13:35:45;;;;;;;12.70;4.20;;;3.60;99.90;;;;;;5025507;28;20409;-84
2022/01/20 13:38:11;;;;;;;15.37;4.10;;;3.50;99.90;;;;;;5030016;28;20466;-85
2022/01/20 13:40:44;;;;;;;12.93;3.70;;;3.50;99.90;;;;;;5025152;28;20389;-83
2022/01/20 13:46:04;;;;;;;10.75;3.47;;;3.40;99.90;;;;;;5007011;28;20423;-84
2022/01/20 13:48:34;;;;;;;12.70;4.13;;;3.40;99.90;;;;;;5006281;28;20378;-84
2022/01/20 13:51:03;;;;;;;16.40;4.63;;;3.50;99.90;;;;;;5005034;28;20388;-84
2022/01/20 13:53:31;;;;;;;13.52;4.35;;;3.40;99.90;;;;;;5006722;28;20458;-84
2022/01/20 13:56:01;;;;;;;17.07;4.40;;;3.40;99.90;;;;;;5004985;28;20441;-85
2022/01/20 13:58:29;;;;;;;13.93;4.20;;;3.50;99.90;;;;;;5006105;28;20408;-84
2022/01/20 14:00:56;;;;;;;12.18;4.10;;;3.50;99.90;;;;;;5023142;28;20426;-83
2022/01/20 14:03:24;;;;;;;15.45;4.00;;;3.50;99.90;;;;;;5023280;28;20385;-85
2022/01/20 14:05:55;;;;;;;12.77;4.40;;;3.50;99.90;;;;;;5023718;28;20413;-84
2022/01/20 14:08:22;;;;;;;13.35;3.83;;;3.60;99.90;;;;;;5022631;28;20401;-84
2022/01/20 14:10:48;;;;;;;12.27;4.03;;;3.60;99.90;;;;;;5022337;28;20393;-84